sensor_id;sensor_type;location;lat;lon;timestamp;temperature;humidity
20610;DHT22;10463;52.378;9.688;2023-02-27T00:01:00;21.60;21.00
20610;DHT22;10463;52.378;9.688;2023-02-27T00:03:45;21.60;21.00
20610;DHT22;10463;52.378;9.688;2023-02-27T00:06:30;21.60;21.00
20610;DHT22;10463;52.378;9.688;2023-02-27T00:09:16;21.50;20.90
20610;DHT22;10463;52.378;9.688;2023-02-27T00:12:00;21.50;20.90
20610;DHT22;10463;52.378;9.688;2023-02-27T00:14:46;21.50;20.90
20610;DHT22;10463;52.378;9.688;2023-02-27T00:17:30;21.50;20.90
20610;DHT22;10463;52.378;9.688;2023-02-27T00:20:17;21.50;20.90
20610;DHT22;10463;52.378;9.688;2023-02-27T00:23:03;21.50;20.90
20610;DHT22;10463;52.378;9.688;2023-02-27T00:25:50;21.50;20.90
20610;DHT22;10463;52.378;9.688;2023-02-27T00:28:35;21.50;20.90
20610;DHT22;10463;52.378;9.688;2023-02-27T00:31:21;21.40;20.90
20610;DHT22;10463;52.378;9.688;2023-02-27T00:34:06;21.40;20.90
20610;DHT22;10463;52.378;9.688;2023-02-27T00:36:54;21.40;20.90
20610;DHT22;10463;52.378;9.688;2023-02-27T00:39:38;21.40;20.90
20610;DHT22;10463;52.378;9.688;2023-02-27T00:42:24;21.40;20.90
20610;DHT22;10463;52.378;9.688;2023-02-27T00:45:10;21.40;20.90
20610;DHT22;10463;52.378;9.688;2023-02-27T00:47:55;21.40;20.90
20610;DHT22;10463;52.378;9.688;2023-02-27T00:50:39;21.40;20.90
20610;DHT22;10463;52.378;9.688;2023-02-27T00:53:24;21.40;20.90
20610;DHT22;10463;52.378;9.688;2023-02-27T00:56:09;21.40;20.90
20610;DHT22;10463;52.378;9.688;2023-02-27T00:58:55;21.30;20.90
20610;DHT22;10463;52.378;9.688;2023-02-27T01:01:39;21.30;20.90
20610;DHT22;10463;52.378;9.688;2023-02-27T01:04:24;21.30;21.20
20610;DHT22;10463;52.378;9.688;2023-02-27T01:07:11;21.30;20.90
20610;DHT22;10463;52.378;9.688;2023-02-27T01:09:56;21.30;20.90
20610;DHT22;10463;52.378;9.688;2023-02-27T01:12:41;21.30;20.90
20610;DHT22;10463;52.378;9.688;2023-02-27T01:15:27;21.30;20.90
20610;DHT22;10463;52.378;9.688;2023-02-27T01:18:11;21.30;20.90
20610;DHT22;10463;52.378;9.688;2023-02-27T01:20:58;21.30;20.90
20610;DHT22;10463;52.378;9.688;2023-02-27T01:23:43;21.30;20.90
20610;DHT22;10463;52.378;9.688;2023-02-27T01:26:28;21.20;20.90
20610;DHT22;10463;52.378;9.688;2023-02-27T01:29:13;21.20;20.90
20610;DHT22;10463;52.378;9.688;2023-02-27T01:32:00;21.20;20.90
20610;DHT22;10463;52.378;9.688;2023-02-27T01:34:45;21.20;20.90
20610;DHT22;10463;52.378;9.688;2023-02-27T01:37:29;21.20;20.90
20610;DHT22;10463;52.378;9.688;2023-02-27T01:40:14;21.20;20.90
20610;DHT22;10463;52.378;9.688;2023-02-27T01:42:59;21.20;20.90
20610;DHT22;10463;52.378;9.688;2023-02-27T01:45:45;21.20;20.90
20610;DHT22;10463;52.378;9.688;2023-02-27T01:48:37;21.20;20.90
20610;DHT22;10463;52.378;9.688;2023-02-27T01:51:23;21.20;20.90
20610;DHT22;10463;52.378;9.688;2023-02-27T01:54:09;21.20;20.90
20610;DHT22;10463;52.378;9.688;2023-02-27T01:56:55;21.10;21.40
20610;DHT22;10463;52.378;9.688;2023-02-27T01:59:41;21.10;20.90
20610;DHT22;10463;52.378;9.688;2023-02-27T02:02:32;21.10;20.90
20610;DHT22;10463;52.378;9.688;2023-02-27T02:05:20;21.10;20.90
20610;DHT22;10463;52.378;9.688;2023-02-27T02:08:05;21.10;20.90
20610;DHT22;10463;52.378;9.688;2023-02-27T02:10:52;21.10;20.90
20610;DHT22;10463;52.378;9.688;2023-02-27T02:13:39;21.10;20.90
20610;DHT22;10463;52.378;9.688;2023-02-27T02:16:51;21.10;20.90
20610;DHT22;10463;52.378;9.688;2023-02-27T02:20:25;21.10;20.90
20610;DHT22;10463;52.378;9.688;2023-02-27T02:27:14;21.00;20.90
20610;DHT22;10463;52.378;9.688;2023-02-27T02:30:55;21.00;20.90
20610;DHT22;10463;52.378;9.688;2023-02-27T02:38:21;21.00;20.90
20610;DHT22;10463;52.378;9.688;2023-02-27T02:41:17;21.00;20.90
20610;DHT22;10463;52.378;9.688;2023-02-27T02:44:14;21.00;20.90
20610;DHT22;10463;52.378;9.688;2023-02-27T02:47:06;20.90;20.90
20610;DHT22;10463;52.378;9.688;2023-02-27T02:49:59;20.90;20.90
20610;DHT22;10463;52.378;9.688;2023-02-27T02:52:57;20.90;20.90
20610;DHT22;10463;52.378;9.688;2023-02-27T02:55:52;20.90;20.90
20610;DHT22;10463;52.378;9.688;2023-02-27T02:58:45;20.90;20.90
20610;DHT22;10463;52.378;9.688;2023-02-27T03:01:35;20.90;20.90
20610;DHT22;10463;52.378;9.688;2023-02-27T03:04:26;20.90;20.90
20610;DHT22;10463;52.378;9.688;2023-02-27T03:07:18;20.90;20.90
20610;DHT22;10463;52.378;9.688;2023-02-27T03:10:08;20.90;20.90
20610;DHT22;10463;52.378;9.688;2023-02-27T03:13:00;20.90;20.90
20610;DHT22;10463;52.378;9.688;2023-02-27T03:15:53;20.90;20.90
20610;DHT22;10463;52.378;9.688;2023-02-27T03:18:43;20.80;20.80
20610;DHT22;10463;52.378;9.688;2023-02-27T03:21:35;20.80;20.80
20610;DHT22;10463;52.378;9.688;2023-02-27T03:24:26;20.90;20.90
20610;DHT22;10463;52.378;9.688;2023-02-27T03:27:16;20.80;20.80
20610;DHT22;10463;52.378;9.688;2023-02-27T03:30:08;20.80;20.90
20610;DHT22;10463;52.378;9.688;2023-02-27T03:32:59;20.80;20.90
20610;DHT22;10463;52.378;9.688;2023-02-27T03:35:50;20.80;20.90
20610;DHT22;10463;52.378;9.688;2023-02-27T03:38:42;20.80;20.90
20610;DHT22;10463;52.378;9.688;2023-02-27T03:41:33;20.80;20.90
20610;DHT22;10463;52.378;9.688;2023-02-27T03:44:51;20.80;20.90
20610;DHT22;10463;52.378;9.688;2023-02-27T03:47:39;20.80;20.90
20610;DHT22;10463;52.378;9.688;2023-02-27T03:50:25;20.80;20.90
20610;DHT22;10463;52.378;9.688;2023-02-27T03:53:17;20.80;20.90
20610;DHT22;10463;52.378;9.688;2023-02-27T03:56:07;20.80;20.90
20610;DHT22;10463;52.378;9.688;2023-02-27T03:58:54;20.70;20.80
20610;DHT22;10463;52.378;9.688;2023-02-27T04:01:39;20.80;20.90
20610;DHT22;10463;52.378;9.688;2023-02-27T04:04:27;20.70;20.80
20610;DHT22;10463;52.378;9.688;2023-02-27T04:07:51;20.70;20.90
20610;DHT22;10463;52.378;9.688;2023-02-27T04:11:18;20.70;20.90
20610;DHT22;10463;52.378;9.688;2023-02-27T04:14:26;20.70;20.90
20610;DHT22;10463;52.378;9.688;2023-02-27T04:17:21;20.70;20.90
20610;DHT22;10463;52.378;9.688;2023-02-27T04:20:37;20.60;20.80
20610;DHT22;10463;52.378;9.688;2023-02-27T04:23:32;20.60;20.80
20610;DHT22;10463;52.378;9.688;2023-02-27T04:26:23;20.70;20.90
20610;DHT22;10463;52.378;9.688;2023-02-27T04:29:16;20.60;20.80
20610;DHT22;10463;52.378;9.688;2023-02-27T04:32:07;20.60;20.80
20610;DHT22;10463;52.378;9.688;2023-02-27T04:34:57;20.60;20.80
20610;DHT22;10463;52.378;9.688;2023-02-27T04:37:48;20.60;20.80
20610;DHT22;10463;52.378;9.688;2023-02-27T04:40:38;20.60;20.80
20610;DHT22;10463;52.378;9.688;2023-02-27T04:43:26;20.60;20.80
20610;DHT22;10463;52.378;9.688;2023-02-27T04:46:15;20.60;20.80
20610;DHT22;10463;52.378;9.688;2023-02-27T04:49:10;20.60;20.80
20610;DHT22;10463;52.378;9.688;2023-02-27T04:52:01;20.60;20.80
20610;DHT22;10463;52.378;9.688;2023-02-27T04:54:54;20.60;20.80
20610;DHT22;10463;52.378;9.688;2023-02-27T04:57:47;20.60;20.80
20610;DHT22;10463;52.378;9.688;2023-02-27T05:00:34;20.60;20.80
20610;DHT22;10463;52.378;9.688;2023-02-27T05:03:24;20.50;20.80
20610;DHT22;10463;52.378;9.688;2023-02-27T05:06:10;20.50;20.80
20610;DHT22;10463;52.378;9.688;2023-02-27T05:09:00;20.50;20.80
20610;DHT22;10463;52.378;9.688;2023-02-27T05:11:53;20.50;20.80
20610;DHT22;10463;52.378;9.688;2023-02-27T05:14:42;20.50;20.80
20610;DHT22;10463;52.378;9.688;2023-02-27T05:17:33;20.50;20.80
20610;DHT22;10463;52.378;9.688;2023-02-27T05:20:21;20.50;20.80
20610;DHT22;10463;52.378;9.688;2023-02-27T05:23:13;20.50;20.80
20610;DHT22;10463;52.378;9.688;2023-02-27T05:26:04;20.50;20.80
20610;DHT22;10463;52.378;9.688;2023-02-27T05:29:02;20.50;20.80
20610;DHT22;10463;52.378;9.688;2023-02-27T05:31:55;20.50;20.80
20610;DHT22;10463;52.378;9.688;2023-02-27T05:34:48;20.50;20.80
20610;DHT22;10463;52.378;9.688;2023-02-27T05:37:41;20.50;20.80
20610;DHT22;10463;52.378;9.688;2023-02-27T05:40:33;20.40;20.80
20610;DHT22;10463;52.378;9.688;2023-02-27T05:43:22;20.40;20.80
20610;DHT22;10463;52.378;9.688;2023-02-27T05:46:14;20.40;21.30
20610;DHT22;10463;52.378;9.688;2023-02-27T05:49:02;20.40;20.80
20610;DHT22;10463;52.378;9.688;2023-02-27T05:51:50;20.40;20.80
20610;DHT22;10463;52.378;9.688;2023-02-27T05:54:42;20.40;20.80
20610;DHT22;10463;52.378;9.688;2023-02-27T05:57:32;20.40;20.80
20610;DHT22;10463;52.378;9.688;2023-02-27T06:00:22;20.40;20.80
20610;DHT22;10463;52.378;9.688;2023-02-27T06:03:11;20.40;20.80
20610;DHT22;10463;52.378;9.688;2023-02-27T06:05:59;20.40;20.80
20610;DHT22;10463;52.378;9.688;2023-02-27T06:08:45;20.40;20.80
20610;DHT22;10463;52.378;9.688;2023-02-27T06:11:30;20.40;20.80
20610;DHT22;10463;52.378;9.688;2023-02-27T06:14:15;20.30;20.80
20610;DHT22;10463;52.378;9.688;2023-02-27T06:16:59;20.40;20.80
20610;DHT22;10463;52.378;9.688;2023-02-27T06:19:45;20.30;20.80
20610;DHT22;10463;52.378;9.688;2023-02-27T06:22:30;20.30;20.80
20610;DHT22;10463;52.378;9.688;2023-02-27T06:25:15;20.30;20.80
20610;DHT22;10463;52.378;9.688;2023-02-27T06:28:00;20.30;20.80
20610;DHT22;10463;52.378;9.688;2023-02-27T06:30:45;20.30;20.80
20610;DHT22;10463;52.378;9.688;2023-02-27T06:33:30;20.30;20.80
20610;DHT22;10463;52.378;9.688;2023-02-27T06:36:16;20.30;20.80
20610;DHT22;10463;52.378;9.688;2023-02-27T06:39:01;20.30;20.80
20610;DHT22;10463;52.378;9.688;2023-02-27T06:41:48;20.30;20.80
20610;DHT22;10463;52.378;9.688;2023-02-27T06:44:33;20.30;20.90
20610;DHT22;10463;52.378;9.688;2023-02-27T06:47:18;20.30;20.90
20610;DHT22;10463;52.378;9.688;2023-02-27T06:50:04;20.30;20.80
20610;DHT22;10463;52.378;9.688;2023-02-27T06:52:50;20.30;20.90
20610;DHT22;10463;52.378;9.688;2023-02-27T06:55:35;20.20;20.80
20610;DHT22;10463;52.378;9.688;2023-02-27T06:58:20;20.30;20.90
20610;DHT22;10463;52.378;9.688;2023-02-27T07:01:05;20.20;20.80
20610;DHT22;10463;52.378;9.688;2023-02-27T07:03:49;20.30;20.90
20610;DHT22;10463;52.378;9.688;2023-02-27T07:06:34;20.30;20.90
20610;DHT22;10463;52.378;9.688;2023-02-27T07:09:20;20.20;20.80
20610;DHT22;10463;52.378;9.688;2023-02-27T07:12:07;20.20;20.80
20610;DHT22;10463;52.378;9.688;2023-02-27T07:14:52;20.20;20.80
20610;DHT22;10463;52.378;9.688;2023-02-27T07:17:36;20.20;20.80
20610;DHT22;10463;52.378;9.688;2023-02-27T07:20:21;20.30;20.90
20610;DHT22;10463;52.378;9.688;2023-02-27T07:23:06;20.20;20.90
20610;DHT22;10463;52.378;9.688;2023-02-27T07:25:52;20.20;20.90
20610;DHT22;10463;52.378;9.688;2023-02-27T07:28:37;20.20;20.90
20610;DHT22;10463;52.378;9.688;2023-02-27T07:31:22;20.20;20.90
20610;DHT22;10463;52.378;9.688;2023-02-27T07:34:07;20.20;20.90
20610;DHT22;10463;52.378;9.688;2023-02-27T07:36:53;20.20;20.90
20610;DHT22;10463;52.378;9.688;2023-02-27T07:39:38;20.20;20.90
20610;DHT22;10463;52.378;9.688;2023-02-27T07:42:24;20.20;20.90
20610;DHT22;10463;52.378;9.688;2023-02-27T07:45:10;20.20;20.90
20610;DHT22;10463;52.378;9.688;2023-02-27T07:47:55;20.20;20.90
20610;DHT22;10463;52.378;9.688;2023-02-27T07:50:39;20.20;20.90
20610;DHT22;10463;52.378;9.688;2023-02-27T07:53:24;20.20;20.90
20610;DHT22;10463;52.378;9.688;2023-02-27T07:56:09;20.20;20.90
20610;DHT22;10463;52.378;9.688;2023-02-27T07:58:55;20.20;21.00
20610;DHT22;10463;52.378;9.688;2023-02-27T08:01:40;20.20;21.00
20610;DHT22;10463;52.378;9.688;2023-02-27T08:04:25;20.20;21.00
20610;DHT22;10463;52.378;9.688;2023-02-27T08:07:09;20.20;21.00
20610;DHT22;10463;52.378;9.688;2023-02-27T08:09:54;20.20;21.00
20610;DHT22;10463;52.378;9.688;2023-02-27T08:12:39;20.20;21.00
20610;DHT22;10463;52.378;9.688;2023-02-27T08:15:25;20.20;21.00
20610;DHT22;10463;52.378;9.688;2023-02-27T08:18:10;20.30;21.10
20610;DHT22;10463;52.378;9.688;2023-02-27T08:20:55;20.30;21.10
20610;DHT22;10463;52.378;9.688;2023-02-27T08:23:40;20.30;21.10
20610;DHT22;10463;52.378;9.688;2023-02-27T08:26:25;20.30;21.10
20610;DHT22;10463;52.378;9.688;2023-02-27T08:29:10;20.30;21.10
20610;DHT22;10463;52.378;9.688;2023-02-27T08:31:56;20.30;21.10
20610;DHT22;10463;52.378;9.688;2023-02-27T08:34:41;20.20;21.00
20610;DHT22;10463;52.378;9.688;2023-02-27T08:37:26;20.30;21.10
20610;DHT22;10463;52.378;9.688;2023-02-27T08:40:12;20.20;21.00
20610;DHT22;10463;52.378;9.688;2023-02-27T08:42:56;20.20;21.10
20610;DHT22;10463;52.378;9.688;2023-02-27T08:45:41;20.30;21.20
20610;DHT22;10463;52.378;9.688;2023-02-27T08:48:27;20.30;21.20
20610;DHT22;10463;52.378;9.688;2023-02-27T08:51:12;20.30;21.20
20610;DHT22;10463;52.378;9.688;2023-02-27T08:53:57;20.30;21.20
20610;DHT22;10463;52.378;9.688;2023-02-27T08:56:46;20.30;21.20
20610;DHT22;10463;52.378;9.688;2023-02-27T08:59:31;20.30;21.20
20610;DHT22;10463;52.378;9.688;2023-02-27T09:02:16;20.40;21.30
20610;DHT22;10463;52.378;9.688;2023-02-27T09:05:03;20.40;21.30
20610;DHT22;10463;52.378;9.688;2023-02-27T09:07:48;20.40;21.30
20610;DHT22;10463;52.378;9.688;2023-02-27T09:10:34;20.40;21.30
20610;DHT22;10463;52.378;9.688;2023-02-27T09:13:19;20.40;21.40
20610;DHT22;10463;52.378;9.688;2023-02-27T09:16:06;20.40;21.30
20610;DHT22;10463;52.378;9.688;2023-02-27T09:18:51;20.40;21.40
20610;DHT22;10463;52.378;9.688;2023-02-27T09:21:37;20.40;21.40
20610;DHT22;10463;52.378;9.688;2023-02-27T09:24:22;20.40;21.40
20610;DHT22;10463;52.378;9.688;2023-02-27T09:27:06;20.40;21.40
20610;DHT22;10463;52.378;9.688;2023-02-27T09:29:51;20.50;21.40
20610;DHT22;10463;52.378;9.688;2023-02-27T09:32:39;20.50;21.40
20610;DHT22;10463;52.378;9.688;2023-02-27T09:35:24;20.50;21.40
20610;DHT22;10463;52.378;9.688;2023-02-27T09:38:13;20.50;21.40
20610;DHT22;10463;52.378;9.688;2023-02-27T09:40:58;20.60;21.50
20610;DHT22;10463;52.378;9.688;2023-02-27T09:43:46;20.60;21.50
20610;DHT22;10463;52.378;9.688;2023-02-27T09:46:31;20.60;21.50
20610;DHT22;10463;52.378;9.688;2023-02-27T09:49:19;20.60;21.40
20610;DHT22;10463;52.378;9.688;2023-02-27T09:52:05;20.60;21.40
20610;DHT22;10463;52.378;9.688;2023-02-27T09:54:51;20.60;21.40
20610;DHT22;10463;52.378;9.688;2023-02-27T09:57:45;20.60;21.40
20610;DHT22;10463;52.378;9.688;2023-02-27T10:00:44;20.60;21.40
20610;DHT22;10463;52.378;9.688;2023-02-27T10:06:50;20.70;21.50
20610;DHT22;10463;52.378;9.688;2023-02-27T10:09:46;20.70;21.50
20610;DHT22;10463;52.378;9.688;2023-02-27T10:12:56;20.70;21.40
20610;DHT22;10463;52.378;9.688;2023-02-27T10:15:47;20.70;21.40
20610;DHT22;10463;52.378;9.688;2023-02-27T10:18:42;20.70;21.40
20610;DHT22;10463;52.378;9.688;2023-02-27T10:21:39;20.70;21.40
20610;DHT22;10463;52.378;9.688;2023-02-27T10:24:29;20.70;21.40
20610;DHT22;10463;52.378;9.688;2023-02-27T10:27:19;20.80;21.50
20610;DHT22;10463;52.378;9.688;2023-02-27T10:30:28;20.80;21.50
20610;DHT22;10463;52.378;9.688;2023-02-27T10:33:23;20.80;21.50
20610;DHT22;10463;52.378;9.688;2023-02-27T10:36:09;20.80;21.50
20610;DHT22;10463;52.378;9.688;2023-02-27T10:39:00;20.80;21.50
20610;DHT22;10463;52.378;9.688;2023-02-27T10:41:47;20.80;21.50
20610;DHT22;10463;52.378;9.688;2023-02-27T10:44:32;20.80;21.40
20610;DHT22;10463;52.378;9.688;2023-02-27T10:47:22;20.80;21.40
20610;DHT22;10463;52.378;9.688;2023-02-27T10:50:25;20.80;21.40
20610;DHT22;10463;52.378;9.688;2023-02-27T10:53:20;20.80;21.40
20610;DHT22;10463;52.378;9.688;2023-02-27T10:56:07;20.80;21.60
20610;DHT22;10463;52.378;9.688;2023-02-27T10:59:03;20.90;21.80
20610;DHT22;10463;52.378;9.688;2023-02-27T11:01:51;20.90;21.90
20610;DHT22;10463;52.378;9.688;2023-02-27T11:04:39;20.90;22.00
20610;DHT22;10463;52.378;9.688;2023-02-27T11:07:34;20.90;22.00
20610;DHT22;10463;52.378;9.688;2023-02-27T11:10:24;21.00;22.10
20610;DHT22;10463;52.378;9.688;2023-02-27T11:13:19;21.00;22.20
20610;DHT22;10463;52.378;9.688;2023-02-27T11:16:12;21.00;22.30
20610;DHT22;10463;52.378;9.688;2023-02-27T11:18:57;21.10;22.40
20610;DHT22;10463;52.378;9.688;2023-02-27T11:21:59;21.10;22.40
20610;DHT22;10463;52.378;9.688;2023-02-27T11:24:44;21.20;22.40
20610;DHT22;10463;52.378;9.688;2023-02-27T11:27:29;21.20;22.40
20610;DHT22;10463;52.378;9.688;2023-02-27T11:30:25;21.20;22.50
20610;DHT22;10463;52.378;9.688;2023-02-27T11:33:18;21.30;22.70
20610;DHT22;10463;52.378;9.688;2023-02-27T11:36:04;21.30;22.60
20610;DHT22;10463;52.378;9.688;2023-02-27T11:38:53;21.30;22.70
20610;DHT22;10463;52.378;9.688;2023-02-27T11:41:38;21.40;22.80
20610;DHT22;10463;52.378;9.688;2023-02-27T11:44:28;21.40;22.70
20610;DHT22;10463;52.378;9.688;2023-02-27T11:47:18;21.50;22.80
20610;DHT22;10463;52.378;9.688;2023-02-27T11:50:38;21.60;22.90
20610;DHT22;10463;52.378;9.688;2023-02-27T11:56:49;21.60;22.90
20610;DHT22;10463;52.378;9.688;2023-02-27T11:59:43;21.70;22.90
20610;DHT22;10463;52.378;9.688;2023-02-27T12:02:42;21.70;22.90
20610;DHT22;10463;52.378;9.688;2023-02-27T12:05:32;21.80;22.90
20610;DHT22;10463;52.378;9.688;2023-02-27T12:08:29;21.90;23.00
20610;DHT22;10463;52.378;9.688;2023-02-27T12:11:22;21.90;23.00
20610;DHT22;10463;52.378;9.688;2023-02-27T12:14:24;22.00;23.00
20610;DHT22;10463;52.378;9.688;2023-02-27T12:17:19;22.00;23.00
20610;DHT22;10463;52.378;9.688;2023-02-27T12:20:26;22.10;23.10
20610;DHT22;10463;52.378;9.688;2023-02-27T12:23:20;22.10;23.00
20610;DHT22;10463;52.378;9.688;2023-02-27T12:26:13;22.20;23.10
20610;DHT22;10463;52.378;9.688;2023-02-27T12:29:08;22.20;23.60
20610;DHT22;10463;52.378;9.688;2023-02-27T12:32:03;22.30;23.10
20610;DHT22;10463;52.378;9.688;2023-02-27T12:34:54;22.40;23.10
20610;DHT22;10463;52.378;9.688;2023-02-27T12:37:42;22.40;23.10
20610;DHT22;10463;52.378;9.688;2023-02-27T12:40:38;22.50;23.00
20610;DHT22;10463;52.378;9.688;2023-02-27T12:43:32;22.50;23.00
20610;DHT22;10463;52.378;9.688;2023-02-27T12:46:34;22.60;23.00
20610;DHT22;10463;52.378;9.688;2023-02-27T12:49:35;22.60;23.10
20610;DHT22;10463;52.378;9.688;2023-02-27T12:52:36;22.70;23.10
20610;DHT22;10463;52.378;9.688;2023-02-27T12:55:26;22.70;23.10
20610;DHT22;10463;52.378;9.688;2023-02-27T12:58:34;22.80;23.10
20610;DHT22;10463;52.378;9.688;2023-02-27T13:01:38;22.80;23.00
20610;DHT22;10463;52.378;9.688;2023-02-27T13:04:30;22.80;23.00
20610;DHT22;10463;52.378;9.688;2023-02-27T13:07:25;22.90;23.00
20610;DHT22;10463;52.378;9.688;2023-02-27T13:10:17;22.90;22.90
20610;DHT22;10463;52.378;9.688;2023-02-27T13:13:09;23.00;22.90
20610;DHT22;10463;52.378;9.688;2023-02-27T13:15:59;23.10;22.80
20610;DHT22;10463;52.378;9.688;2023-02-27T13:18:50;23.10;22.70
20610;DHT22;10463;52.378;9.688;2023-02-27T13:21:43;23.10;22.70
20610;DHT22;10463;52.378;9.688;2023-02-27T13:24:31;23.10;22.60
20610;DHT22;10463;52.378;9.688;2023-02-27T13:27:22;23.20;22.50
20610;DHT22;10463;52.378;9.688;2023-02-27T13:30:17;23.20;22.60
20610;DHT22;10463;52.378;9.688;2023-02-27T13:33:15;23.20;22.60
20610;DHT22;10463;52.378;9.688;2023-02-27T13:36:09;23.20;22.50
20610;DHT22;10463;52.378;9.688;2023-02-27T13:38:57;23.30;22.60
20610;DHT22;10463;52.378;9.688;2023-02-27T13:41:42;23.30;22.60
20610;DHT22;10463;52.378;9.688;2023-02-27T13:44:39;23.30;22.60
20610;DHT22;10463;52.378;9.688;2023-02-27T13:47:47;23.30;22.60
20610;DHT22;10463;52.378;9.688;2023-02-27T13:50:51;23.40;22.70
20610;DHT22;10463;52.378;9.688;2023-02-27T13:53:37;23.40;22.60
20610;DHT22;10463;52.378;9.688;2023-02-27T13:56:23;23.50;22.60
20610;DHT22;10463;52.378;9.688;2023-02-27T13:59:16;23.50;22.50
20610;DHT22;10463;52.378;9.688;2023-02-27T14:05:29;23.50;22.30
20610;DHT22;10463;52.378;9.688;2023-02-27T14:08:18;23.60;22.30
20610;DHT22;10463;52.378;9.688;2023-02-27T14:11:16;23.60;22.20
20610;DHT22;10463;52.378;9.688;2023-02-27T14:14:07;23.60;22.00
20610;DHT22;10463;52.378;9.688;2023-02-27T14:16:55;23.60;21.90
20610;DHT22;10463;52.378;9.688;2023-02-27T14:19:51;23.60;21.80
20610;DHT22;10463;52.378;9.688;2023-02-27T14:26:14;23.60;21.70
20610;DHT22;10463;52.378;9.688;2023-02-27T14:29:00;23.60;21.70
20610;DHT22;10463;52.378;9.688;2023-02-27T14:31:47;23.60;21.70
20610;DHT22;10463;52.378;9.688;2023-02-27T14:34:35;23.60;22.30
20610;DHT22;10463;52.378;9.688;2023-02-27T14:37:24;23.60;21.80
20610;DHT22;10463;52.378;9.688;2023-02-27T14:40:16;23.60;21.70
20610;DHT22;10463;52.378;9.688;2023-02-27T14:43:12;23.60;21.70
20610;DHT22;10463;52.378;9.688;2023-02-27T14:46:10;23.60;22.30
20610;DHT22;10463;52.378;9.688;2023-02-27T14:48:59;23.60;21.90
20610;DHT22;10463;52.378;9.688;2023-02-27T14:51:45;23.60;21.70
20610;DHT22;10463;52.378;9.688;2023-02-27T14:54:31;23.60;21.60
20610;DHT22;10463;52.378;9.688;2023-02-27T14:57:18;23.60;21.50
20610;DHT22;10463;52.378;9.688;2023-02-27T15:00:05;23.60;21.50
20610;DHT22;10463;52.378;9.688;2023-02-27T15:02:50;23.60;21.30
20610;DHT22;10463;52.378;9.688;2023-02-27T15:05:37;23.60;21.30
20610;DHT22;10463;52.378;9.688;2023-02-27T15:08:25;23.60;21.30
20610;DHT22;10463;52.378;9.688;2023-02-27T15:11:16;23.60;21.30
20610;DHT22;10463;52.378;9.688;2023-02-27T15:14:04;23.60;21.30
20610;DHT22;10463;52.378;9.688;2023-02-27T15:16:53;23.60;21.30
20610;DHT22;10463;52.378;9.688;2023-02-27T15:19:46;23.60;21.30
20610;DHT22;10463;52.378;9.688;2023-02-27T15:22:37;23.50;21.20
20610;DHT22;10463;52.378;9.688;2023-02-27T15:25:28;23.50;21.30
20610;DHT22;10463;52.378;9.688;2023-02-27T15:28:21;23.50;21.20
20610;DHT22;10463;52.378;9.688;2023-02-27T15:31:17;23.50;21.20
20610;DHT22;10463;52.378;9.688;2023-02-27T15:34:03;23.50;21.20
20610;DHT22;10463;52.378;9.688;2023-02-27T15:36:55;23.50;21.20
20610;DHT22;10463;52.378;9.688;2023-02-27T15:39:42;23.40;21.20
20610;DHT22;10463;52.378;9.688;2023-02-27T15:42:29;23.40;21.20
20610;DHT22;10463;52.378;9.688;2023-02-27T15:45:18;23.40;21.20
20610;DHT22;10463;52.378;9.688;2023-02-27T15:48:04;23.40;21.20
20610;DHT22;10463;52.378;9.688;2023-02-27T15:50:54;23.40;21.20
20610;DHT22;10463;52.378;9.688;2023-02-27T15:53:47;23.30;21.10
20610;DHT22;10463;52.378;9.688;2023-02-27T15:56:38;23.30;21.10
20610;DHT22;10463;52.378;9.688;2023-02-27T15:59:23;23.30;21.10
20610;DHT22;10463;52.378;9.688;2023-02-27T16:02:16;23.30;21.10
20610;DHT22;10463;52.378;9.688;2023-02-27T16:05:01;23.20;21.00
20610;DHT22;10463;52.378;9.688;2023-02-27T16:07:47;23.20;21.00
20610;DHT22;10463;52.378;9.688;2023-02-27T16:10:41;23.20;21.00
20610;DHT22;10463;52.378;9.688;2023-02-27T16:13:33;23.20;21.00
20610;DHT22;10463;52.378;9.688;2023-02-27T16:16:38;23.20;21.00
20610;DHT22;10463;52.378;9.688;2023-02-27T16:19:25;23.20;21.10
20610;DHT22;10463;52.378;9.688;2023-02-27T16:22:14;23.20;21.00
20610;DHT22;10463;52.378;9.688;2023-02-27T16:25:08;23.20;21.00
20610;DHT22;10463;52.378;9.688;2023-02-27T16:27:53;23.20;21.00
20610;DHT22;10463;52.378;9.688;2023-02-27T16:30:40;23.20;21.00
20610;DHT22;10463;52.378;9.688;2023-02-27T16:33:26;23.10;20.90
20610;DHT22;10463;52.378;9.688;2023-02-27T16:36:18;23.10;20.90
20610;DHT22;10463;52.378;9.688;2023-02-27T16:39:03;23.10;20.90
20610;DHT22;10463;52.378;9.688;2023-02-27T16:41:51;23.10;21.00
20610;DHT22;10463;52.378;9.688;2023-02-27T16:44:36;23.10;21.00
20610;DHT22;10463;52.378;9.688;2023-02-27T16:47:22;23.00;20.90
20610;DHT22;10463;52.378;9.688;2023-02-27T16:50:14;23.00;20.90
20610;DHT22;10463;52.378;9.688;2023-02-27T16:53:00;23.00;21.00
20610;DHT22;10463;52.378;9.688;2023-02-27T16:55:45;23.00;21.00
20610;DHT22;10463;52.378;9.688;2023-02-27T16:58:29;23.00;21.60
20610;DHT22;10463;52.378;9.688;2023-02-27T17:01:14;23.00;21.00
20610;DHT22;10463;52.378;9.688;2023-02-27T17:04:01;22.90;21.00
20610;DHT22;10463;52.378;9.688;2023-02-27T17:06:46;22.90;21.00
20610;DHT22;10463;52.378;9.688;2023-02-27T17:09:31;22.90;21.10
20610;DHT22;10463;52.378;9.688;2023-02-27T17:12:19;22.90;21.60
20610;DHT22;10463;52.378;9.688;2023-02-27T17:15:05;22.80;21.00
20610;DHT22;10463;52.378;9.688;2023-02-27T17:17:49;22.80;21.00
20610;DHT22;10463;52.378;9.688;2023-02-27T17:20:35;22.80;21.00
20610;DHT22;10463;52.378;9.688;2023-02-27T17:23:20;22.90;21.10
20610;DHT22;10463;52.378;9.688;2023-02-27T17:26:05;22.80;21.00
20610;DHT22;10463;52.378;9.688;2023-02-27T17:28:51;22.80;21.00
20610;DHT22;10463;52.378;9.688;2023-02-27T17:31:36;22.80;21.00
20610;DHT22;10463;52.378;9.688;2023-02-27T17:34:21;22.80;21.10
20610;DHT22;10463;52.378;9.688;2023-02-27T17:37:07;22.80;21.10
20610;DHT22;10463;52.378;9.688;2023-02-27T17:39:54;22.70;21.00
20610;DHT22;10463;52.378;9.688;2023-02-27T17:42:39;22.70;21.10
20610;DHT22;10463;52.378;9.688;2023-02-27T17:45:24;22.70;21.00
20610;DHT22;10463;52.378;9.688;2023-02-27T17:48:10;22.70;21.00
20610;DHT22;10463;52.378;9.688;2023-02-27T17:51:03;22.70;21.10
20610;DHT22;10463;52.378;9.688;2023-02-27T17:53:49;22.60;21.00
20610;DHT22;10463;52.378;9.688;2023-02-27T17:56:34;22.60;21.00
20610;DHT22;10463;52.378;9.688;2023-02-27T17:59:19;22.60;21.10
20610;DHT22;10463;52.378;9.688;2023-02-27T18:02:04;22.60;21.10
20610;DHT22;10463;52.378;9.688;2023-02-27T18:04:49;22.60;21.10
20610;DHT22;10463;52.378;9.688;2023-02-27T18:07:34;22.60;21.10
20610;DHT22;10463;52.378;9.688;2023-02-27T18:10:20;22.60;21.10
20610;DHT22;10463;52.378;9.688;2023-02-27T18:13:05;22.50;21.10